Hays Regional Airport
KHYS : now visible

Airfield :











YOU CAN JOIN US ON...

 
LOGIN :

Register | Disclaimer

   EN    FR    IT 

 









Legend :    VFR   Marginal VFR   IFR   Intensive IFR   Very Intensive IFR
Visi :
Ceiling :
>= 8 km
>= 3000ft
5 to 8 km
1000 to 3000 ft
1500m to 5 km
500 to 1000 ft
800 to 1500m
200 to 500 ft
< 800m
< 200 ft
Symbols :   Thunderstorms  Fog  Heavy snow  Heavy precipitations  Wind > 20 kt







- Airport Elevation : 1999 ft


KHYS - Hays Regional

CURRENT METAR :
  • 181856Z AUTO 21018KT 10SM CLR 36/22 A2975 RMK AO2 SLP048 T03610217

EXPIRED METARs :
  • 181756Z AUTO 22014G22KT 10SM CLR 35/22 A2976 RMK AO2 SLP054 T03500222 10350 20239 58011
  • 181656Z AUTO 23015G22KT 10SM CLR 33/21 A2978 RMK AO2 SLP062 T03330211

TAF KHYS
Valid from the 18 at 18:00 until the 19 at 18:00 UTC


181720Z 1818/1918 21017G23KT P6SM SKC
FM190000 17011KT P6SM SKC
KZKC FIR / North America



MET'MAP, your aeronautical weather chart ! - Copyright ORBIFLY December 2007 - Disclaimer

ORBIFLY MET'MAP TEAM :

Programming & Development : Alexandra Zaïnal
Concept & Development : Baudouin d'Aumeries
Co-Development & Prog : Marc-Olivier Méhu
Technical & hardware support : Manuel Goepfert

Contact : metmap@orbifly.com




SOURCES & CREDITS :

   NOAA       Earth
Advisory